sensor_id;sensor_type;location;lat;lon;timestamp;P1;durP1;ratioP1;P2;durP2;ratioP2
75730;SDS011;64350;47.450;19.124;2023-02-03T06:05:19;14.77;;;3.67;;
75730;SDS011;64350;47.450;19.124;2023-02-03T06:07:45;7.80;;;3.37;;
75730;SDS011;64350;47.450;19.124;2023-02-03T06:10:11;6.60;;;3.15;;
75730;SDS011;64350;47.450;19.124;2023-02-03T06:12:37;8.47;;;2.97;;
75730;SDS011;64350;47.450;19.124;2023-02-03T06:15:02;9.73;;;2.70;;
75730;SDS011;64350;47.450;19.124;2023-02-03T06:17:28;6.95;;;2.78;;
75730;SDS011;64350;47.450;19.124;2023-02-03T06:19:54;10.67;;;3.70;;
75730;SDS011;64350;47.450;19.124;2023-02-03T06:22:21;8.48;;;3.42;;
75730;SDS011;64350;47.450;19.124;2023-02-03T06:24:47;10.53;;;3.83;;
75730;SDS011;64350;47.450;19.124;2023-02-03T06:27:13;6.93;;;3.20;;
75730;SDS011;64350;47.450;19.124;2023-02-03T06:29:39;8.18;;;3.28;;
75730;SDS011;64350;47.450;19.124;2023-02-03T06:32:05;8.77;;;3.33;;
75730;SDS011;64350;47.450;19.124;2023-02-03T06:34:31;9.67;;;4.10;;
75730;SDS011;64350;47.450;19.124;2023-02-03T06:36:57;10.68;;;4.07;;
75730;SDS011;64350;47.450;19.124;2023-02-03T06:39:22;9.70;;;3.60;;
75730;SDS011;64350;47.450;19.124;2023-02-03T06:41:48;11.47;;;3.17;;
75730;SDS011;64350;47.450;19.124;2023-02-03T06:44:15;8.77;;;3.03;;
75730;SDS011;64350;47.450;19.124;2023-02-03T06:46:40;8.90;;;3.53;;
75730;SDS011;64350;47.450;19.124;2023-02-03T06:49:06;13.10;;;3.37;;
75730;SDS011;64350;47.450;19.124;2023-02-03T06:51:31;9.53;;;3.03;;
75730;SDS011;64350;47.450;19.124;2023-02-03T06:53:56;8.33;;;3.33;;
75730;SDS011;64350;47.450;19.124;2023-02-03T06:56:22;12.95;;;5.40;;
75730;SDS011;64350;47.450;19.124;2023-02-03T06:58:48;8.10;;;3.67;;
75730;SDS011;64350;47.450;19.124;2023-02-03T07:01:14;8.23;;;3.83;;
75730;SDS011;64350;47.450;19.124;2023-02-03T07:03:39;9.07;;;3.33;;
75730;SDS011;64350;47.450;19.124;2023-02-03T07:06:05;11.67;;;2.70;;
75730;SDS011;64350;47.450;19.124;2023-02-03T07:08:30;10.27;;;2.90;;
75730;SDS011;64350;47.450;19.124;2023-02-03T07:10:56;6.50;;;2.30;;
75730;SDS011;64350;47.450;19.124;2023-02-03T07:13:21;7.93;;;2.87;;
75730;SDS011;64350;47.450;19.124;2023-02-03T07:15:46;8.90;;;3.47;;
75730;SDS011;64350;47.450;19.124;2023-02-03T07:18:12;6.67;;;3.03;;
75730;SDS011;64350;47.450;19.124;2023-02-03T07:20:48;10.70;;;3.62;;
75730;SDS011;64350;47.450;19.124;2023-02-03T07:23:13;9.83;;;3.87;;
75730;SDS011;64350;47.450;19.124;2023-02-03T07:25:38;8.17;;;3.40;;
75730;SDS011;64350;47.450;19.124;2023-02-03T07:28:04;7.33;;;3.43;;
75730;SDS011;64350;47.450;19.124;2023-02-03T07:30:29;10.57;;;3.60;;
75730;SDS011;64350;47.450;19.124;2023-02-03T07:32:55;9.63;;;3.47;;
75730;SDS011;64350;47.450;19.124;2023-02-03T07:35:20;9.75;;;3.62;;
75730;SDS011;64350;47.450;19.124;2023-02-03T07:37:46;12.17;;;4.33;;
75730;SDS011;64350;47.450;19.124;2023-02-03T07:40:11;10.47;;;4.47;;
75730;SDS011;64350;47.450;19.124;2023-02-03T07:42:40;9.60;;;3.80;;
75730;SDS011;64350;47.450;19.124;2023-02-03T07:45:07;8.75;;;3.00;;
75730;SDS011;64350;47.450;19.124;2023-02-03T07:47:33;8.63;;;2.92;;
75730;SDS011;64350;47.450;19.124;2023-02-03T07:49:59;7.63;;;2.90;;
75730;SDS011;64350;47.450;19.124;2023-02-03T07:52:24;9.97;;;3.10;;
75730;SDS011;64350;47.450;19.124;2023-02-03T07:54:50;7.17;;;3.17;;
75730;SDS011;64350;47.450;19.124;2023-02-03T07:57:15;7.72;;;2.53;;
75730;SDS011;64350;47.450;19.124;2023-02-03T07:59:40;10.93;;;3.60;;
75730;SDS011;64350;47.450;19.124;2023-02-03T08:02:07;12.33;;;3.00;;
75730;SDS011;64350;47.450;19.124;2023-02-03T08:04:35;8.80;;;2.80;;
75730;SDS011;64350;47.450;19.124;2023-02-03T08:07:00;6.33;;;2.50;;
75730;SDS011;64350;47.450;19.124;2023-02-03T08:09:26;13.23;;;4.87;;
75730;SDS011;64350;47.450;19.124;2023-02-03T08:11:51;22.13;;;5.30;;
75730;SDS011;64350;47.450;19.124;2023-02-03T08:14:17;10.93;;;3.47;;
75730;SDS011;64350;47.450;19.124;2023-02-03T08:16:42;14.07;;;4.07;;
75730;SDS011;64350;47.450;19.124;2023-02-03T08:19:07;8.57;;;2.87;;
75730;SDS011;64350;47.450;19.124;2023-02-03T08:21:33;8.90;;;2.83;;
75730;SDS011;64350;47.450;19.124;2023-02-03T08:23:59;8.00;;;3.28;;
75730;SDS011;64350;47.450;19.124;2023-02-03T08:26:25;9.70;;;3.17;;
75730;SDS011;64350;47.450;19.124;2023-02-03T08:28:50;7.93;;;3.23;;
75730;SDS011;64350;47.450;19.124;2023-02-03T08:31:15;8.83;;;3.40;;
75730;SDS011;64350;47.450;19.124;2023-02-03T08:33:41;11.10;;;3.87;;
75730;SDS011;64350;47.450;19.124;2023-02-03T08:36:10;10.37;;;3.77;;
75730;SDS011;64350;47.450;19.124;2023-02-03T08:38:35;9.57;;;3.60;;
75730;SDS011;64350;47.450;19.124;2023-02-03T08:41:06;11.20;;;3.50;;
75730;SDS011;64350;47.450;19.124;2023-02-03T08:43:36;8.23;;;3.37;;
75730;SDS011;64350;47.450;19.124;2023-02-03T08:46:02;7.72;;;3.45;;
75730;SDS011;64350;47.450;19.124;2023-02-03T08:48:28;9.13;;;3.87;;
75730;SDS011;64350;47.450;19.124;2023-02-03T08:50:57;7.80;;;3.87;;
75730;SDS011;64350;47.450;19.124;2023-02-03T08:53:25;10.60;;;3.65;;
75730;SDS011;64350;47.450;19.124;2023-02-03T08:55:51;9.30;;;4.05;;
75730;SDS011;64350;47.450;19.124;2023-02-03T08:58:17;10.48;;;3.75;;
75730;SDS011;64350;47.450;19.124;2023-02-03T09:00:42;9.17;;;4.00;;
75730;SDS011;64350;47.450;19.124;2023-02-03T09:03:08;9.03;;;3.20;;
75730;SDS011;64350;47.450;19.124;2023-02-03T09:05:34;9.02;;;3.70;;
75730;SDS011;64350;47.450;19.124;2023-02-03T09:08:00;11.07;;;4.18;;
75730;SDS011;64350;47.450;19.124;2023-02-03T09:10:25;10.67;;;4.37;;
75730;SDS011;64350;47.450;19.124;2023-02-03T09:12:51;10.60;;;4.60;;
75730;SDS011;64350;47.450;19.124;2023-02-03T09:15:16;12.43;;;4.80;;
75730;SDS011;64350;47.450;19.124;2023-02-03T09:17:42;10.37;;;4.93;;
75730;SDS011;64350;47.450;19.124;2023-02-03T09:20:07;10.97;;;4.90;;
75730;SDS011;64350;47.450;19.124;2023-02-03T09:22:37;11.35;;;5.20;;
75730;SDS011;64350;47.450;19.124;2023-02-03T09:25:03;13.23;;;6.33;;
75730;SDS011;64350;47.450;19.124;2023-02-03T09:27:28;11.77;;;6.60;;
75730;SDS011;64350;47.450;19.124;2023-02-03T09:29:54;13.27;;;6.23;;
75730;SDS011;64350;47.450;19.124;2023-02-03T09:32:19;16.93;;;6.53;;
75730;SDS011;64350;47.450;19.124;2023-02-03T09:34:44;11.02;;;6.40;;
75730;SDS011;64350;47.450;19.124;2023-02-03T09:37:10;11.00;;;5.67;;
75730;SDS011;64350;47.450;19.124;2023-02-03T09:39:35;14.83;;;7.27;;
75730;SDS011;64350;47.450;19.124;2023-02-03T09:47:13;16.00;;;7.37;;
75730;SDS011;64350;47.450;19.124;2023-02-03T09:49:51;14.87;;;6.55;;
75730;SDS011;64350;47.450;19.124;2023-02-03T09:52:20;18.30;;;6.70;;
75730;SDS011;64350;47.450;19.124;2023-02-03T09:57:36;15.73;;;7.55;;
75730;SDS011;64350;47.450;19.124;2023-02-03T10:00:19;16.02;;;7.55;;
75730;SDS011;64350;47.450;19.124;2023-02-03T10:17:13;17.65;;;8.68;;
75730;SDS011;64350;47.450;19.124;2023-02-03T10:20:38;18.00;;;8.70;;
75730;SDS011;64350;47.450;19.124;2023-02-03T10:23:09;14.90;;;7.75;;
75730;SDS011;64350;47.450;19.124;2023-02-03T10:25:47;17.42;;;8.55;;
75730;SDS011;64350;47.450;19.124;2023-02-03T10:28:19;18.55;;;9.15;;
75730;SDS011;64350;47.450;19.124;2023-02-03T10:31:00;19.20;;;10.05;;
75730;SDS011;64350;47.450;19.124;2023-02-03T10:33:29;16.97;;;8.40;;
75730;SDS011;64350;47.450;19.124;2023-02-03T10:38:57;17.05;;;8.38;;
75730;SDS011;64350;47.450;19.124;2023-02-03T10:41:24;15.45;;;8.60;;
75730;SDS011;64350;47.450;19.124;2023-02-03T10:43:52;20.40;;;8.65;;
75730;SDS011;64350;47.450;19.124;2023-02-03T10:46:19;18.10;;;8.57;;
75730;SDS011;64350;47.450;19.124;2023-02-03T10:48:47;19.15;;;9.45;;
75730;SDS011;64350;47.450;19.124;2023-02-03T10:51:59;19.25;;;9.52;;
75730;SDS011;64350;47.450;19.124;2023-02-03T10:54:32;18.40;;;10.10;;
75730;SDS011;64350;47.450;19.124;2023-02-03T10:57:05;20.65;;;10.63;;
75730;SDS011;64350;47.450;19.124;2023-02-03T10:59:36;20.70;;;10.05;;
75730;SDS011;64350;47.450;19.124;2023-02-03T11:02:07;21.20;;;10.82;;
75730;SDS011;64350;47.450;19.124;2023-02-03T11:04:33;18.12;;;10.20;;
75730;SDS011;64350;47.450;19.124;2023-02-03T11:07:00;18.23;;;8.50;;
75730;SDS011;64350;47.450;19.124;2023-02-03T11:09:40;19.90;;;10.52;;
75730;SDS011;64350;47.450;19.124;2023-02-03T11:12:17;16.05;;;10.20;;
75730;SDS011;64350;47.450;19.124;2023-02-03T11:14:44;18.60;;;10.13;;
75730;SDS011;64350;47.450;19.124;2023-02-03T11:19:45;20.30;;;10.35;;
75730;SDS011;64350;47.450;19.124;2023-02-03T11:22:12;16.15;;;8.75;;
75730;SDS011;64350;47.450;19.124;2023-02-03T11:24:39;15.38;;;8.48;;
75730;SDS011;64350;47.450;19.124;2023-02-03T11:27:08;13.20;;;7.27;;
75730;SDS011;64350;47.450;19.124;2023-02-03T11:29:39;15.48;;;7.07;;
75730;SDS011;64350;47.450;19.124;2023-02-03T11:32:14;16.15;;;8.10;;
75730;SDS011;64350;47.450;19.124;2023-02-03T11:35:12;14.10;;;7.35;;
75730;SDS011;64350;47.450;19.124;2023-02-03T11:37:41;13.75;;;7.68;;
75730;SDS011;64350;47.450;19.124;2023-02-03T11:42:42;13.82;;;6.60;;
75730;SDS011;64350;47.450;19.124;2023-02-03T11:45:33;12.95;;;6.55;;
75730;SDS011;64350;47.450;19.124;2023-02-03T12:05:36;8.73;;;4.43;;
75730;SDS011;64350;47.450;19.124;2023-02-03T12:13:58;8.20;;;4.65;;
75730;SDS011;64350;47.450;19.124;2023-02-03T12:19:37;9.30;;;5.03;;
75730;SDS011;64350;47.450;19.124;2023-02-03T12:22:28;8.90;;;4.43;;
75730;SDS011;64350;47.450;19.124;2023-02-03T12:28:12;9.23;;;4.70;;
75730;SDS011;64350;47.450;19.124;2023-02-03T12:30:48;11.20;;;6.22;;
75730;SDS011;64350;47.450;19.124;2023-02-03T12:33:17;9.00;;;5.82;;
75730;SDS011;64350;47.450;19.124;2023-02-03T12:35:47;13.97;;;6.80;;
75730;SDS011;64350;47.450;19.124;2023-02-03T12:38:29;12.60;;;6.53;;
75730;SDS011;64350;47.450;19.124;2023-02-03T12:40:59;12.27;;;6.85;;
75730;SDS011;64350;47.450;19.124;2023-02-03T12:43:31;12.63;;;7.05;;
75730;SDS011;64350;47.450;19.124;2023-02-03T12:46:21;13.23;;;6.65;;
75730;SDS011;64350;47.450;19.124;2023-02-03T12:51:44;13.95;;;6.85;;
75730;SDS011;64350;47.450;19.124;2023-02-03T12:54:24;10.60;;;6.07;;
75730;SDS011;64350;47.450;19.124;2023-02-03T12:56:57;10.13;;;5.37;;
75730;SDS011;64350;47.450;19.124;2023-02-03T12:59:30;11.63;;;5.95;;
75730;SDS011;64350;47.450;19.124;2023-02-03T13:01:58;11.60;;;5.93;;
75730;SDS011;64350;47.450;19.124;2023-02-03T13:04:33;11.98;;;6.43;;
75730;SDS011;64350;47.450;19.124;2023-02-03T13:12:06;11.40;;;7.07;;
75730;SDS011;64350;47.450;19.124;2023-02-03T13:14:37;12.13;;;7.60;;
75730;SDS011;64350;47.450;19.124;2023-02-03T13:17:08;12.23;;;7.22;;
75730;SDS011;64350;47.450;19.124;2023-02-03T13:19:46;13.30;;;7.65;;
75730;SDS011;64350;47.450;19.124;2023-02-03T13:22:17;13.55;;;7.97;;
75730;SDS011;64350;47.450;19.124;2023-02-03T13:24:45;16.08;;;8.10;;
75730;SDS011;64350;47.450;19.124;2023-02-03T13:27:28;12.90;;;6.93;;
75730;SDS011;64350;47.450;19.124;2023-02-03T13:38:41;13.27;;;8.38;;
75730;SDS011;64350;47.450;19.124;2023-02-03T13:43:44;18.77;;;9.10;;
75730;SDS011;64350;47.450;19.124;2023-02-03T13:46:19;14.65;;;9.02;;
75730;SDS011;64350;47.450;19.124;2023-02-03T13:48:49;15.23;;;8.32;;
75730;SDS011;64350;47.450;19.124;2023-02-03T13:51:23;16.42;;;9.05;;
75730;SDS011;64350;47.450;19.124;2023-02-03T13:53:57;13.87;;;7.73;;
75730;SDS011;64350;47.450;19.124;2023-02-03T13:56:51;19.58;;;8.50;;
75730;SDS011;64350;47.450;19.124;2023-02-03T14:02:53;15.80;;;8.40;;
75730;SDS011;64350;47.450;19.124;2023-02-03T14:12:58;16.90;;;9.15;;
75730;SDS011;64350;47.450;19.124;2023-02-03T14:22:50;24.77;;;11.12;;
75730;SDS011;64350;47.450;19.124;2023-02-03T14:25:16;21.77;;;11.50;;
75730;SDS011;64350;47.450;19.124;2023-02-03T14:27:42;21.67;;;11.30;;
75730;SDS011;64350;47.450;19.124;2023-02-03T14:30:09;23.48;;;11.23;;
75730;SDS011;64350;47.450;19.124;2023-02-03T14:32:53;20.80;;;11.70;;
75730;SDS011;64350;47.450;19.124;2023-02-03T14:35:20;20.80;;;10.97;;
75730;SDS011;64350;47.450;19.124;2023-02-03T14:37:57;23.83;;;10.93;;
75730;SDS011;64350;47.450;19.124;2023-02-03T14:43:27;14.65;;;8.07;;
75730;SDS011;64350;47.450;19.124;2023-02-03T14:46:33;18.87;;;9.43;;
75730;SDS011;64350;47.450;19.124;2023-02-03T14:57:28;16.95;;;9.10;;
75730;SDS011;64350;47.450;19.124;2023-02-03T15:02:30;15.90;;;7.87;;
75730;SDS011;64350;47.450;19.124;2023-02-03T15:10:29;14.65;;;7.85;;
75730;SDS011;64350;47.450;19.124;2023-02-03T15:13:05;12.68;;;6.68;;
75730;SDS011;64350;47.450;19.124;2023-02-03T15:15:35;16.20;;;8.17;;
75730;SDS011;64350;47.450;19.124;2023-02-03T15:18:51;13.60;;;7.32;;
75730;SDS011;64350;47.450;19.124;2023-02-03T15:20:54;15.43;;;7.83;;
75730;SDS011;64350;47.450;19.124;2023-02-03T15:23:21;15.10;;;7.62;;
75730;SDS011;64350;47.450;19.124;2023-02-03T15:26:01;15.88;;;8.13;;
75730;SDS011;64350;47.450;19.124;2023-02-03T15:28:28;16.90;;;8.35;;
75730;SDS011;64350;47.450;19.124;2023-02-03T15:33:23;15.27;;;8.73;;
75730;SDS011;64350;47.450;19.124;2023-02-03T15:35:49;16.60;;;8.38;;
75730;SDS011;64350;47.450;19.124;2023-02-03T15:38:24;15.45;;;7.90;;
75730;SDS011;64350;47.450;19.124;2023-02-03T15:40:52;16.40;;;8.17;;
75730;SDS011;64350;47.450;19.124;2023-02-03T15:43:31;16.08;;;8.32;;
75730;SDS011;64350;47.450;19.124;2023-02-03T15:49:14;15.45;;;8.05;;
75730;SDS011;64350;47.450;19.124;2023-02-03T15:51:48;13.70;;;7.93;;
75730;SDS011;64350;47.450;19.124;2023-02-03T15:54:24;18.27;;;10.70;;
75730;SDS011;64350;47.450;19.124;2023-02-03T15:56:58;13.85;;;7.05;;
75730;SDS011;64350;47.450;19.124;2023-02-03T15:59:33;13.77;;;8.00;;
75730;SDS011;64350;47.450;19.124;2023-02-03T16:02:00;14.98;;;8.00;;
75730;SDS011;64350;47.450;19.124;2023-02-03T16:04:31;17.08;;;7.20;;
75730;SDS011;64350;47.450;19.124;2023-02-03T16:06:57;14.53;;;7.73;;
75730;SDS011;64350;47.450;19.124;2023-02-03T16:09:33;17.35;;;8.60;;
75730;SDS011;64350;47.450;19.124;2023-02-03T16:14:32;16.12;;;9.23;;
75730;SDS011;64350;47.450;19.124;2023-02-03T16:16:59;17.13;;;9.60;;
75730;SDS011;64350;47.450;19.124;2023-02-03T16:19:26;16.02;;;7.90;;
75730;SDS011;64350;47.450;19.124;2023-02-03T16:21:54;14.80;;;7.97;;
75730;SDS011;64350;47.450;19.124;2023-02-03T16:29:53;18.98;;;10.15;;
75730;SDS011;64350;47.450;19.124;2023-02-03T16:32:55;19.52;;;9.77;;
75730;SDS011;64350;47.450;19.124;2023-02-03T16:35:51;18.23;;;10.17;;
75730;SDS011;64350;47.450;19.124;2023-02-03T16:38:35;20.27;;;10.07;;
75730;SDS011;64350;47.450;19.124;2023-02-03T16:41:19;24.35;;;12.18;;
75730;SDS011;64350;47.450;19.124;2023-02-03T16:44:03;25.15;;;12.75;;
75730;SDS011;64350;47.450;19.124;2023-02-03T16:46:50;20.98;;;11.32;;
75730;SDS011;64350;47.450;19.124;2023-02-03T16:49:34;21.40;;;10.77;;
75730;SDS011;64350;47.450;19.124;2023-02-03T16:52:18;21.37;;;9.75;;
75730;SDS011;64350;47.450;19.124;2023-02-03T16:54:44;18.77;;;8.88;;
75730;SDS011;64350;47.450;19.124;2023-02-03T16:57:09;14.00;;;6.97;;
75730;SDS011;64350;47.450;19.124;2023-02-03T16:59:35;13.07;;;6.77;;
75730;SDS011;64350;47.450;19.124;2023-02-03T17:02:00;12.43;;;5.97;;
75730;SDS011;64350;47.450;19.124;2023-02-03T17:04:25;10.87;;;5.30;;
75730;SDS011;64350;47.450;19.124;2023-02-03T17:06:51;9.70;;;4.20;;
75730;SDS011;64350;47.450;19.124;2023-02-03T17:09:17;8.93;;;4.33;;
75730;SDS011;64350;47.450;19.124;2023-02-03T17:11:48;9.45;;;4.43;;
75730;SDS011;64350;47.450;19.124;2023-02-03T17:14:14;7.90;;;3.60;;
75730;SDS011;64350;47.450;19.124;2023-02-03T17:16:40;8.57;;;3.77;;
75730;SDS011;64350;47.450;19.124;2023-02-03T17:19:08;6.28;;;2.90;;
75730;SDS011;64350;47.450;19.124;2023-02-03T17:21:34;7.53;;;3.30;;
75730;SDS011;64350;47.450;19.124;2023-02-03T17:24:00;7.00;;;3.30;;
75730;SDS011;64350;47.450;19.124;2023-02-03T17:26:26;7.97;;;3.53;;
75730;SDS011;64350;47.450;19.124;2023-02-03T17:28:51;8.82;;;4.07;;
75730;SDS011;64350;47.450;19.124;2023-02-03T17:31:17;10.07;;;4.00;;
75730;SDS011;64350;47.450;19.124;2023-02-03T17:33:44;8.80;;;4.35;;
75730;SDS011;64350;47.450;19.124;2023-02-03T17:36:13;8.80;;;4.50;;
75730;SDS011;64350;47.450;19.124;2023-02-03T17:38:44;10.15;;;4.68;;
75730;SDS011;64350;47.450;19.124;2023-02-03T17:41:12;11.32;;;4.90;;
75730;SDS011;64350;47.450;19.124;2023-02-03T17:43:38;8.85;;;4.78;;
75730;SDS011;64350;47.450;19.124;2023-02-03T17:46:04;11.07;;;5.73;;
75730;SDS011;64350;47.450;19.124;2023-02-03T17:48:30;12.02;;;5.78;;
75730;SDS011;64350;47.450;19.124;2023-02-03T17:51:09;11.73;;;5.67;;
75730;SDS011;64350;47.450;19.124;2023-02-03T17:53:39;12.90;;;6.32;;
75730;SDS011;64350;47.450;19.124;2023-02-03T17:56:12;11.48;;;6.60;;
75730;SDS011;64350;47.450;19.124;2023-02-03T17:58:39;12.37;;;6.75;;
75730;SDS011;64350;47.450;19.124;2023-02-03T18:01:06;13.48;;;7.25;;
75730;SDS011;64350;47.450;19.124;2023-02-03T18:03:48;12.70;;;6.97;;
75730;SDS011;64350;47.450;19.124;2023-02-03T18:06:15;11.23;;;6.70;;
75730;SDS011;64350;47.450;19.124;2023-02-03T18:08:43;14.52;;;7.10;;
75730;SDS011;64350;47.450;19.124;2023-02-03T18:11:09;14.40;;;7.15;;
75730;SDS011;64350;47.450;19.124;2023-02-03T18:13:39;17.55;;;8.73;;
75730;SDS011;64350;47.450;19.124;2023-02-03T18:16:07;21.80;;;9.83;;
75730;SDS011;64350;47.450;19.124;2023-02-03T18:18:34;15.27;;;7.20;;
75730;SDS011;64350;47.450;19.124;2023-02-03T18:21:03;14.43;;;6.53;;
75730;SDS011;64350;47.450;19.124;2023-02-03T18:23:29;15.63;;;7.77;;
75730;SDS011;64350;47.450;19.124;2023-02-03T18:25:55;13.68;;;6.75;;
75730;SDS011;64350;47.450;19.124;2023-02-03T18:28:21;14.18;;;6.32;;
75730;SDS011;64350;47.450;19.124;2023-02-03T18:30:47;13.57;;;6.13;;
75730;SDS011;64350;47.450;19.124;2023-02-03T18:33:14;11.63;;;6.05;;
75730;SDS011;64350;47.450;19.124;2023-02-03T18:35:41;11.20;;;5.55;;
75730;SDS011;64350;47.450;19.124;2023-02-03T18:38:06;8.77;;;4.33;;
75730;SDS011;64350;47.450;19.124;2023-02-03T18:40:33;8.35;;;4.25;;
75730;SDS011;64350;47.450;19.124;2023-02-03T18:43:00;9.50;;;4.40;;
75730;SDS011;64350;47.450;19.124;2023-02-03T18:45:26;10.70;;;5.57;;
75730;SDS011;64350;47.450;19.124;2023-02-03T18:47:52;12.47;;;5.03;;
75730;SDS011;64350;47.450;19.124;2023-02-03T18:50:18;9.15;;;4.57;;
75730;SDS011;64350;47.450;19.124;2023-02-03T18:52:43;12.13;;;5.40;;
75730;SDS011;64350;47.450;19.124;2023-02-03T18:55:09;16.23;;;7.65;;
75730;SDS011;64350;47.450;19.124;2023-02-03T18:57:34;16.83;;;7.50;;
75730;SDS011;64350;47.450;19.124;2023-02-03T19:00:00;16.13;;;7.83;;
75730;SDS011;64350;47.450;19.124;2023-02-03T19:02:26;13.02;;;6.55;;
75730;SDS011;64350;47.450;19.124;2023-02-03T19:04:52;11.80;;;6.03;;
75730;SDS011;64350;47.450;19.124;2023-02-03T19:07:17;8.83;;;3.77;;
75730;SDS011;64350;47.450;19.124;2023-02-03T19:09:42;11.03;;;4.93;;
75730;SDS011;64350;47.450;19.124;2023-02-03T19:12:08;10.40;;;4.67;;
75730;SDS011;64350;47.450;19.124;2023-02-03T19:14:34;7.55;;;3.85;;
75730;SDS011;64350;47.450;19.124;2023-02-03T19:16:59;8.23;;;4.20;;
75730;SDS011;64350;47.450;19.124;2023-02-03T19:19:25;14.10;;;5.97;;
75730;SDS011;64350;47.450;19.124;2023-02-03T19:21:50;13.67;;;6.30;;
75730;SDS011;64350;47.450;19.124;2023-02-03T19:24:16;9.93;;;4.60;;
75730;SDS011;64350;47.450;19.124;2023-02-03T19:26:42;8.55;;;4.60;;
75730;SDS011;64350;47.450;19.124;2023-02-03T19:29:08;6.67;;;2.37;;
75730;SDS011;64350;47.450;19.124;2023-02-03T19:31:33;6.57;;;3.23;;
75730;SDS011;64350;47.450;19.124;2023-02-03T19:33:59;8.47;;;3.13;;
75730;SDS011;64350;47.450;19.124;2023-02-03T19:36:26;5.97;;;2.78;;
75730;SDS011;64350;47.450;19.124;2023-02-03T19:38:52;5.18;;;1.90;;
75730;SDS011;64350;47.450;19.124;2023-02-03T19:41:17;6.87;;;2.50;;
75730;SDS011;64350;47.450;19.124;2023-02-03T19:43:43;6.28;;;1.90;;
75730;SDS011;64350;47.450;19.124;2023-02-03T19:46:08;4.53;;;1.50;;
75730;SDS011;64350;47.450;19.124;2023-02-03T19:48:34;4.13;;;1.70;;
75730;SDS011;64350;47.450;19.124;2023-02-03T19:51:31;5.72;;;1.37;;
75730;SDS011;64350;47.450;19.124;2023-02-03T19:53:57;5.47;;;1.98;;
75730;SDS011;64350;47.450;19.124;2023-02-03T19:56:25;5.27;;;1.90;;
75730;SDS011;64350;47.450;19.124;2023-02-03T19:58:51;5.87;;;1.50;;
75730;SDS011;64350;47.450;19.124;2023-02-03T20:01:18;3.62;;;1.30;;
75730;SDS011;64350;47.450;19.124;2023-02-03T20:03:44;4.03;;;1.27;;
75730;SDS011;64350;47.450;19.124;2023-02-03T20:06:09;5.30;;;1.98;;
75730;SDS011;64350;47.450;19.124;2023-02-03T20:08:35;5.27;;;1.87;;
75730;SDS011;64350;47.450;19.124;2023-02-03T20:11:00;4.43;;;1.53;;
75730;SDS011;64350;47.450;19.124;2023-02-03T20:13:27;4.87;;;1.77;;
75730;SDS011;64350;47.450;19.124;2023-02-03T20:15:52;4.90;;;1.98;;
75730;SDS011;64350;47.450;19.124;2023-02-03T20:18:18;4.20;;;1.57;;
75730;SDS011;64350;47.450;19.124;2023-02-03T20:20:54;5.78;;;1.75;;
75730;SDS011;64350;47.450;19.124;2023-02-03T20:23:23;4.45;;;1.30;;
75730;SDS011;64350;47.450;19.124;2023-02-03T20:25:52;4.15;;;1.45;;
75730;SDS011;64350;47.450;19.124;2023-02-03T20:28:19;5.03;;;2.37;;
75730;SDS011;64350;47.450;19.124;2023-02-03T20:30:48;7.35;;;1.85;;
75730;SDS011;64350;47.450;19.124;2023-02-03T20:33:15;9.40;;;3.47;;
75730;SDS011;64350;47.450;19.124;2023-02-03T20:35:46;8.65;;;2.30;;
75730;SDS011;64350;47.450;19.124;2023-02-03T20:38:11;4.53;;;1.70;;
75730;SDS011;64350;47.450;19.124;2023-02-03T20:40:39;5.80;;;1.30;;
75730;SDS011;64350;47.450;19.124;2023-02-03T20:43:11;5.32;;;2.10;;
75730;SDS011;64350;47.450;19.124;2023-02-03T20:45:45;5.43;;;1.80;;
75730;SDS011;64350;47.450;19.124;2023-02-03T20:48:13;4.70;;;1.60;;
75730;SDS011;64350;47.450;19.124;2023-02-03T20:50:39;7.75;;;1.58;;
75730;SDS011;64350;47.450;19.124;2023-02-03T20:53:29;6.00;;;1.92;;
75730;SDS011;64350;47.450;19.124;2023-02-03T20:55:56;5.90;;;1.67;;
75730;SDS011;64350;47.450;19.124;2023-02-03T20:58:29;5.50;;;1.10;;
75730;SDS011;64350;47.450;19.124;2023-02-03T21:00:56;5.25;;;1.55;;
75730;SDS011;64350;47.450;19.124;2023-02-03T21:03:22;8.37;;;1.83;;
75730;SDS011;64350;47.450;19.124;2023-02-03T21:06:14;5.30;;;1.80;;
75730;SDS011;64350;47.450;19.124;2023-02-03T21:08:41;5.05;;;1.52;;
75730;SDS011;64350;47.450;19.124;2023-02-03T21:11:17;5.40;;;2.35;;
75730;SDS011;64350;47.450;19.124;2023-02-03T21:13:44;6.07;;;2.42;;
75730;SDS011;64350;47.450;19.124;2023-02-03T21:16:15;6.43;;;1.97;;
75730;SDS011;64350;47.450;19.124;2023-02-03T21:21:14;10.13;;;2.28;;
75730;SDS011;64350;47.450;19.124;2023-02-03T21:23:44;6.72;;;2.00;;
75730;SDS011;64350;47.450;19.124;2023-02-03T21:26:20;8.88;;;1.60;;
75730;SDS011;64350;47.450;19.124;2023-02-03T21:28:50;6.27;;;1.30;;
75730;SDS011;64350;47.450;19.124;2023-02-03T21:31:27;7.18;;;1.83;;
75730;SDS011;64350;47.450;19.124;2023-02-03T21:34:42;9.55;;;2.42;;
75730;SDS011;64350;47.450;19.124;2023-02-03T21:36:51;8.50;;;2.15;;
75730;SDS011;64350;47.450;19.124;2023-02-03T21:39:27;7.33;;;2.30;;
75730;SDS011;64350;47.450;19.124;2023-02-03T21:41:55;9.27;;;2.03;;
75730;SDS011;64350;47.450;19.124;2023-02-03T21:44:25;6.32;;;1.60;;
75730;SDS011;64350;47.450;19.124;2023-02-03T21:46:52;6.30;;;1.73;;
75730;SDS011;64350;47.450;19.124;2023-02-03T21:49:17;12.13;;;1.80;;
75730;SDS011;64350;47.450;19.124;2023-02-03T21:51:43;7.33;;;1.37;;
75730;SDS011;64350;47.450;19.124;2023-02-03T21:56:45;9.27;;;2.10;;
75730;SDS011;64350;47.450;19.124;2023-02-03T21:59:14;8.40;;;1.87;;
75730;SDS011;64350;47.450;19.124;2023-02-03T22:01:41;10.38;;;2.30;;
75730;SDS011;64350;47.450;19.124;2023-02-03T22:04:06;10.47;;;2.60;;
75730;SDS011;64350;47.450;19.124;2023-02-03T22:09:04;7.00;;;2.10;;
